createdAt,value
2023-03-05T00:01:29.366Z,8.38
2023-03-05T00:03:57.821Z,7.95
2023-03-05T00:06:28.024Z,7.65
2023-03-05T00:08:58.429Z,9.73
2023-03-05T00:11:30.192Z,9.98
2023-03-05T00:13:59.511Z,7.35
2023-03-05T00:16:28.294Z,7.53
2023-03-05T00:18:57.814Z,11.32
2023-03-05T00:21:35.316Z,10.70
2023-03-05T00:24:15.479Z,11.27
2023-03-05T00:26:43.942Z,9.30
2023-03-05T00:29:22.006Z,8.65
2023-03-05T00:31:50.050Z,10.00
2023-03-05T00:34:19.260Z,12.77
2023-03-05T00:36:50.369Z,8.65
2023-03-05T00:39:19.918Z,12.00
2023-03-05T00:41:48.501Z,7.93
2023-03-05T00:44:16.238Z,11.18
2023-03-05T00:46:44.253Z,11.65
2023-03-05T00:49:12.122Z,9.90
2023-03-05T00:51:40.460Z,11.63
2023-03-05T00:54:08.087Z,11.82
2023-03-05T00:56:36.152Z,10.05
2023-03-05T00:59:04.466Z,12.40
2023-03-05T01:01:32.481Z,8.25
2023-03-05T01:04:01.272Z,10.10
2023-03-05T01:06:29.642Z,12.85
2023-03-05T01:08:57.352Z,16.08
2023-03-05T01:11:25.772Z,14.23
2023-03-05T01:13:53.933Z,14.52
2023-03-05T01:16:22.017Z,17.17
2023-03-05T01:18:49.748Z,18.83
2023-03-05T01:21:17.751Z,15.38
2023-03-05T01:23:45.402Z,16.27
2023-03-05T01:26:13.321Z,13.50
2023-03-05T01:28:41.574Z,17.30
2023-03-05T01:31:10.759Z,13.00
2023-03-05T01:33:39.702Z,13.68
2023-03-05T01:36:13.343Z,14.05
2023-03-05T01:38:42.260Z,24.60
2023-03-05T01:41:11.427Z,13.70
2023-03-05T01:43:39.711Z,14.95
2023-03-05T01:46:28.072Z,15.45
2023-03-05T01:49:14.357Z,17.00
2023-03-05T01:51:42.285Z,14.70
2023-03-05T01:54:13.279Z,15.02
2023-03-05T01:56:43.453Z,12.80
2023-03-05T01:59:12.779Z,14.23
2023-03-05T02:01:48.116Z,15.15
2023-03-05T02:04:18.759Z,14.65
2023-03-05T02:06:48.522Z,17.52
2023-03-05T02:09:16.220Z,19.83
2023-03-05T02:11:44.535Z,19.83
2023-03-05T02:14:12.348Z,19.55
2023-03-05T02:16:41.096Z,18.38
2023-03-05T02:19:12.803Z,24.80
2023-03-05T02:21:44.258Z,22.35
2023-03-05T02:24:18.279Z,18.15
2023-03-05T02:26:47.818Z,17.92
2023-03-05T02:29:19.843Z,17.27
2023-03-05T02:31:48.011Z,16.55
2023-03-05T02:34:15.797Z,18.25
2023-03-05T02:36:43.772Z,18.67
2023-03-05T02:39:13.610Z,18.50
2023-03-05T02:41:41.720Z,19.58
2023-03-05T02:44:09.963Z,19.38
2023-03-05T02:46:38.434Z,20.15
2023-03-05T02:49:06.181Z,21.88
2023-03-05T02:51:34.201Z,17.58
2023-03-05T02:54:02.247Z,20.38
2023-03-05T02:56:31.218Z,17.95
2023-03-05T02:59:01.925Z,20.38
2023-03-05T03:01:30.095Z,17.23
2023-03-05T03:03:59.005Z,19.80
2023-03-05T03:06:27.082Z,17.92
2023-03-05T03:08:54.922Z,26.15
2023-03-05T03:11:22.912Z,15.32
2023-03-05T03:13:50.525Z,19.60
2023-03-05T03:16:18.713Z,17.63
2023-03-05T03:18:48.809Z,21.52
2023-03-05T03:21:24.660Z,17.20
2023-03-05T03:23:52.717Z,19.80
2023-03-05T03:26:21.015Z,19.08
2023-03-05T03:28:48.673Z,20.50
2023-03-05T03:31:16.741Z,18.02
2023-03-05T03:33:44.639Z,18.30
2023-03-05T03:36:13.145Z,15.02
2023-03-05T03:38:40.848Z,25.05
2023-03-05T03:41:09.540Z,18.33
2023-03-05T03:43:37.638Z,16.38
2023-03-05T03:46:07.363Z,19.65
2023-03-05T03:48:36.080Z,24.25
2023-03-05T03:51:08.298Z,14.02
2023-03-05T03:53:35.967Z,15.93
2023-03-05T03:56:04.216Z,17.95
2023-03-05T03:58:31.886Z,20.75
2023-03-05T04:00:59.880Z,20.58
2023-03-05T04:03:27.579Z,19.70
2023-03-05T04:05:55.471Z,19.02
2023-03-05T04:08:23.144Z,17.67
2023-03-05T04:10:51.063Z,22.40
2023-03-05T04:13:18.780Z,19.65
2023-03-05T04:15:46.832Z,17.70
2023-03-05T04:18:14.484Z,17.05
2023-03-05T04:20:42.441Z,16.95
2023-03-05T04:23:10.064Z,19.23
2023-03-05T04:25:37.928Z,21.83
2023-03-05T04:28:05.814Z,15.80
2023-03-05T04:30:33.773Z,20.25
2023-03-05T04:33:01.424Z,14.00
2023-03-05T04:35:29.368Z,16.35
2023-03-05T04:37:57.052Z,16.63
2023-03-05T04:40:24.960Z,15.60
2023-03-05T04:42:52.598Z,21.00
2023-03-05T04:45:20.513Z,15.93
2023-03-05T04:47:48.197Z,16.95
2023-03-05T04:50:16.323Z,20.25
2023-03-05T04:52:45.636Z,18.98
2023-03-05T04:55:15.730Z,14.63
2023-03-05T04:57:43.684Z,16.58
2023-03-05T05:00:14.851Z,17.08
2023-03-05T05:02:45.014Z,15.77
2023-03-05T05:05:16.559Z,15.15
2023-03-05T05:07:44.851Z,16.92
2023-03-05T05:10:14.138Z,23.75
2023-03-05T05:12:42.136Z,17.35
2023-03-05T05:15:12.315Z,21.77
2023-03-05T05:17:40.600Z,18.48
2023-03-05T05:20:11.572Z,17.35
2023-03-05T05:22:39.496Z,14.35
2023-03-05T05:25:07.720Z,18.35
2023-03-05T05:27:35.856Z,16.63
2023-03-05T05:30:04.610Z,15.90
2023-03-05T05:32:32.273Z,16.98
2023-03-05T05:35:00.371Z,16.67
2023-03-05T05:37:29.508Z,15.05
2023-03-05T05:39:57.428Z,13.35
2023-03-05T05:42:26.373Z,17.15
2023-03-05T05:44:55.532Z,15.77
2023-03-05T05:47:23.221Z,17.27
2023-03-05T05:49:51.459Z,14.43
2023-03-05T05:52:19.137Z,16.45
2023-03-05T05:54:47.156Z,14.52
2023-03-05T05:57:14.902Z,15.20
2023-03-05T05:59:43.057Z,19.45
2023-03-05T06:02:13.767Z,15.52
2023-03-05T06:04:41.749Z,13.52
2023-03-05T06:07:09.388Z,15.75
2023-03-05T06:09:37.342Z,14.98
2023-03-05T06:12:05.517Z,15.15
2023-03-05T06:14:33.586Z,15.70
2023-03-05T06:17:01.381Z,14.57
2023-03-05T06:19:29.378Z,18.65
2023-03-05T06:21:57.628Z,18.55
2023-03-05T06:24:25.698Z,16.90
2023-03-05T06:26:53.369Z,15.23
2023-03-05T06:29:21.352Z,13.40
2023-03-05T06:31:49.140Z,14.10
2023-03-05T06:34:17.074Z,13.48
2023-03-05T06:36:44.795Z,13.90
2023-03-05T06:39:12.740Z,14.45
2023-03-05T06:41:40.548Z,13.88
2023-03-05T06:44:08.464Z,13.70
2023-03-05T06:46:39.820Z,10.50
2023-03-05T06:49:09.604Z,13.73
2023-03-05T06:51:39.657Z,12.45
2023-03-05T06:54:12.676Z,11.98
2023-03-05T06:56:42.964Z,13.02
2023-03-05T06:59:13.487Z,14.02
2023-03-05T07:01:41.192Z,10.10
2023-03-05T07:04:09.241Z,11.15
2023-03-05T07:06:38.755Z,10.38
2023-03-05T07:09:08.977Z,8.70
2023-03-05T07:11:36.961Z,8.65
2023-03-05T07:14:05.301Z,10.65
2023-03-05T07:16:34.217Z,8.52
2023-03-05T07:19:04.276Z,11.00
2023-03-05T07:21:34.195Z,10.98
2023-03-05T07:24:03.922Z,9.90
2023-03-05T07:26:33.565Z,7.45
2023-03-05T07:29:02.610Z,13.25
2023-03-05T07:31:33.313Z,8.35
2023-03-05T07:34:02.928Z,10.65
2023-03-05T07:36:32.315Z,8.63
2023-03-05T07:39:00.423Z,11.52
2023-03-05T07:41:28.161Z,9.07
2023-03-05T07:43:57.585Z,13.43
2023-03-05T07:46:30.675Z,7.80
2023-03-05T07:48:59.045Z,8.90
2023-03-05T07:51:27.983Z,8.90
2023-03-05T07:53:58.430Z,7.47
2023-03-05T07:56:37.893Z,8.27
2023-03-05T07:59:08.848Z,8.23
2023-03-05T08:01:37.360Z,7.57
2023-03-05T08:04:07.324Z,10.80
2023-03-05T08:06:35.067Z,6.78
2023-03-05T08:09:03.148Z,7.75
2023-03-05T08:11:30.903Z,8.48
2023-03-05T08:13:59.578Z,7.15
2023-03-05T08:16:27.952Z,9.10
2023-03-05T08:18:57.511Z,8.23
2023-03-05T08:21:33.521Z,9.27
2023-03-05T08:24:04.250Z,12.93
2023-03-05T08:26:34.166Z,10.27
2023-03-05T08:29:03.367Z,8.57
2023-03-05T08:31:31.733Z,11.43
2023-03-05T08:34:01.019Z,8.30
2023-03-05T08:36:29.963Z,10.73
2023-03-05T08:38:59.767Z,8.02
2023-03-05T08:41:27.687Z,10.18
2023-03-05T08:43:55.901Z,10.90
2023-03-05T08:46:24.080Z,6.57
2023-03-05T08:48:52.151Z,8.82
2023-03-05T08:51:23.600Z,8.25
2023-03-05T08:53:52.391Z,10.40
2023-03-05T08:56:20.669Z,11.50
2023-03-05T08:58:48.702Z,11.93
2023-03-05T09:01:16.388Z,9.90
2023-03-05T09:03:44.396Z,10.75
2023-03-05T09:06:12.922Z,41.70
2023-03-05T09:08:41.238Z,17.98
2023-03-05T09:11:11.670Z,10.95
2023-03-05T09:13:39.862Z,11.23
2023-03-05T09:16:11.366Z,13.70
2023-03-05T09:18:40.658Z,23.70
2023-03-05T09:21:10.887Z,45.70
2023-03-05T09:23:40.684Z,29.90
2023-03-05T09:26:12.060Z,28.50
2023-03-05T09:28:40.913Z,33.17
2023-03-05T09:31:10.659Z,39.03
2023-03-05T09:33:39.710Z,42.40
2023-03-05T09:36:27.442Z,59.22
2023-03-05T09:38:55.764Z,27.05
2023-03-05T09:41:30.848Z,22.45
2023-03-05T09:44:08.904Z,21.92
2023-03-05T09:46:43.881Z,13.73
2023-03-05T09:49:39.635Z,14.45
2023-03-05T09:52:39.536Z,16.80
2023-03-05T09:55:24.389Z,16.30
2023-03-05T09:57:57.205Z,23.77
2023-03-05T10:00:32.734Z,23.13
2023-03-05T10:03:05.835Z,17.90
2023-03-05T10:06:11.246Z,14.45
2023-03-05T10:09:02.813Z,16.08
2023-03-05T10:11:46.113Z,18.25
2023-03-05T10:14:20.003Z,16.95
2023-03-05T10:16:56.779Z,17.40
2023-03-05T10:19:52.444Z,15.25
2023-03-05T10:22:28.579Z,13.27
2023-03-05T10:25:26.403Z,15.52
2023-03-05T10:28:17.765Z,22.80
2023-03-05T10:30:55.953Z,16.20
2023-03-05T10:33:43.829Z,14.55
2023-03-05T10:36:24.304Z,17.67
2023-03-05T10:39:16.849Z,20.83
2023-03-05T10:42:05.878Z,17.92
2023-03-05T10:44:54.417Z,16.23
2023-03-05T10:47:54.344Z,18.42
2023-03-05T10:50:25.974Z,28.17
2023-03-05T10:53:03.567Z,24.77
2023-03-05T10:55:32.179Z,22.38
2023-03-05T10:58:01.245Z,23.27
2023-03-05T11:00:29.249Z,23.60
2023-03-05T11:03:03.466Z,12.57
2023-03-05T11:05:40.329Z,18.73
2023-03-05T11:08:32.489Z,31.05
2023-03-05T11:11:09.164Z,20.27
2023-03-05T11:13:59.772Z,34.38
2023-03-05T11:16:34.148Z,38.88
2023-03-05T11:19:24.622Z,26.40
2023-03-05T11:22:15.172Z,17.83
2023-03-05T11:24:46.660Z,47.38
2023-03-05T11:27:36.901Z,34.28
2023-03-05T11:30:24.368Z,15.75
2023-03-05T11:33:13.685Z,25.05
2023-03-05T11:35:43.843Z,31.23
2023-03-05T11:38:24.676Z,24.40
2023-03-05T11:40:55.709Z,23.10
2023-03-05T11:43:26.289Z,17.40
2023-03-05T11:46:05.520Z,20.38
2023-03-05T11:48:37.641Z,28.10
2023-03-05T11:51:18.281Z,28.13
2023-03-05T11:53:50.244Z,34.83
2023-03-05T11:56:24.410Z,29.73
2023-03-05T11:59:07.193Z,30.75
2023-03-05T12:01:42.476Z,16.85
2023-03-05T12:04:10.542Z,15.82
2023-03-05T12:07:02.073Z,24.38
2023-03-05T12:09:50.658Z,32.88
2023-03-05T12:12:44.649Z,39.70
2023-03-05T12:15:37.055Z,37.58
2023-03-05T12:18:21.065Z,27.02
2023-03-05T12:21:14.792Z,36.75
2023-03-05T12:24:03.045Z,18.80
2023-03-05T12:26:56.118Z,18.13
2023-03-05T12:29:43.591Z,27.23
2023-03-05T12:32:25.649Z,20.55
2023-03-05T12:35:00.300Z,13.82
2023-03-05T12:37:28.271Z,18.27
2023-03-05T12:40:17.352Z,22.67
2023-03-05T12:43:05.981Z,15.35
2023-03-05T12:45:39.624Z,16.23
2023-03-05T12:50:39.924Z,17.20
2023-03-05T12:53:18.475Z,15.27
2023-03-05T12:55:48.914Z,20.20
2023-03-05T12:58:35.349Z,16.77
2023-03-05T13:01:11.835Z,14.85
2023-03-05T13:03:48.626Z,19.67
2023-03-05T13:06:34.134Z,15.18
2023-03-05T13:09:25.363Z,17.15
2023-03-05T13:11:55.272Z,15.35
2023-03-05T13:14:32.291Z,16.75
2023-03-05T13:17:00.985Z,13.57
2023-03-05T13:19:32.887Z,15.48
2023-03-05T13:22:11.577Z,23.77
2023-03-05T13:24:39.526Z,17.98
2023-03-05T13:27:31.055Z,12.45
2023-03-05T13:29:59.057Z,11.38
2023-03-05T13:32:30.796Z,15.63
2023-03-05T13:35:02.089Z,17.60
2023-03-05T13:37:34.450Z,16.80
2023-03-05T13:40:15.736Z,33.13
2023-03-05T13:42:43.467Z,22.30
2023-03-05T13:45:31.622Z,14.15
2023-03-05T13:48:05.746Z,13.65
2023-03-05T13:50:38.195Z,13.38
2023-03-05T13:53:31.781Z,17.15
2023-03-05T13:56:13.783Z,19.02
2023-03-05T13:58:57.196Z,26.17
2023-03-05T14:01:36.932Z,27.10
2023-03-05T14:04:13.819Z,22.30
2023-03-05T14:07:07.635Z,19.40
2023-03-05T14:09:41.080Z,9.80
2023-03-05T14:12:38.514Z,10.30
2023-03-05T14:15:47.560Z,10.25
2023-03-05T14:18:19.593Z,16.60
2023-03-05T14:21:08.866Z,12.02
2023-03-05T14:23:53.005Z,11.98
2023-03-05T14:26:32.606Z,9.00
2023-03-05T14:29:05.228Z,12.23
2023-03-05T14:31:57.801Z,11.45
2023-03-05T14:34:27.840Z,7.78
2023-03-05T14:37:03.387Z,16.42
2023-03-05T14:39:59.947Z,13.73
2023-03-05T14:42:50.823Z,17.45
2023-03-05T14:45:40.873Z,11.70
2023-03-05T14:48:10.638Z,12.88
2023-03-05T14:50:42.483Z,19.02
2023-03-05T14:53:48.376Z,16.02
2023-03-05T14:56:28.172Z,14.07
2023-03-05T14:58:59.737Z,17.88
2023-03-05T15:01:27.935Z,16.58
2023-03-05T15:03:55.674Z,18.50
2023-03-05T15:06:45.396Z,13.50
2023-03-05T15:09:17.670Z,18.10
2023-03-05T15:11:45.992Z,14.13
2023-03-05T15:14:13.677Z,15.90
2023-03-05T15:16:45.427Z,15.05
2023-03-05T15:19:13.899Z,16.67
2023-03-05T15:21:42.240Z,13.32
2023-03-05T15:24:11.352Z,16.63
2023-03-05T15:26:39.860Z,12.98
2023-03-05T15:29:07.582Z,15.60
2023-03-05T15:31:38.761Z,14.02
2023-03-05T15:34:07.288Z,16.83
2023-03-05T15:36:35.193Z,14.18
2023-03-05T15:39:03.093Z,14.55
2023-03-05T15:41:31.139Z,17.73
2023-03-05T15:43:58.885Z,15.20
2023-03-05T15:46:26.911Z,18.65
2023-03-05T15:48:54.806Z,18.05
2023-03-05T15:51:22.870Z,17.80
2023-03-05T15:53:50.692Z,18.73
2023-03-05T15:56:19.539Z,19.60
2023-03-05T15:58:53.247Z,19.98
2023-03-05T16:01:23.350Z,20.52
2023-03-05T16:03:51.642Z,18.00
2023-03-05T16:06:24.028Z,16.50
2023-03-05T16:08:56.903Z,15.70
2023-03-05T16:11:25.856Z,18.60
2023-03-05T16:13:53.770Z,20.48
2023-03-05T16:16:23.684Z,18.85
2023-03-05T16:18:51.555Z,22.27
2023-03-05T16:21:19.734Z,24.63
2023-03-05T16:23:49.419Z,23.48
2023-03-05T16:26:17.595Z,23.05
2023-03-05T16:28:45.575Z,18.08
2023-03-05T16:31:13.631Z,24.45
2023-03-05T16:33:41.324Z,22.25
2023-03-05T16:36:20.756Z,23.80
2023-03-05T16:38:50.934Z,22.02
2023-03-05T16:41:21.954Z,19.58
2023-03-05T16:43:54.154Z,23.65
2023-03-05T16:46:23.018Z,19.90
2023-03-05T16:48:52.289Z,24.15
2023-03-05T16:51:21.280Z,24.15
2023-03-05T16:53:49.284Z,21.70
2023-03-05T16:56:17.670Z,23.83
2023-03-05T16:58:45.362Z,18.88
2023-03-05T17:01:18.129Z,20.65
2023-03-05T17:03:47.002Z,26.77
2023-03-05T17:06:24.130Z,24.73
2023-03-05T17:08:52.880Z,23.75
2023-03-05T17:11:21.562Z,25.80
2023-03-05T17:13:49.370Z,29.30
2023-03-05T17:16:33.850Z,23.55
2023-03-05T17:19:01.687Z,24.05
2023-03-05T17:21:29.629Z,25.25
2023-03-05T17:23:57.521Z,26.23
2023-03-05T17:26:25.959Z,30.88
2023-03-05T17:28:54.596Z,28.10
2023-03-05T17:31:22.717Z,28.98
2023-03-05T17:33:50.938Z,30.40
2023-03-05T17:36:20.829Z,30.30
2023-03-05T17:38:50.315Z,31.15
2023-03-05T17:41:19.830Z,30.23
2023-03-05T17:43:48.005Z,28.75
2023-03-05T17:46:16.887Z,49.80
2023-03-05T17:48:45.055Z,39.15
2023-03-05T17:51:16.411Z,43.53
2023-03-05T17:53:44.390Z,34.58
2023-03-05T17:56:14.248Z,33.58
2023-03-05T17:58:42.134Z,36.97
2023-03-05T18:01:10.656Z,36.97
2023-03-05T18:03:39.354Z,47.28
2023-03-05T18:06:07.662Z,48.17
2023-03-05T18:08:36.068Z,43.80
2023-03-05T18:11:04.161Z,42.63
2023-03-05T18:13:32.226Z,40.00
2023-03-05T18:16:01.091Z,41.05
2023-03-05T18:18:28.995Z,36.97
2023-03-05T18:20:57.213Z,37.80
2023-03-05T18:23:24.990Z,37.03
2023-03-05T18:25:53.160Z,39.55
2023-03-05T18:28:21.055Z,44.95
2023-03-05T18:30:49.361Z,41.97
2023-03-05T18:33:25.184Z,36.97
2023-03-05T18:35:53.769Z,44.75
2023-03-05T18:38:23.669Z,41.00
2023-03-05T18:40:53.417Z,47.20
2023-03-05T18:43:22.559Z,42.05
2023-03-05T18:45:55.855Z,42.83
2023-03-05T18:48:23.858Z,40.60
2023-03-05T18:50:53.907Z,48.47
2023-03-05T18:53:22.570Z,41.53
2023-03-05T18:55:51.944Z,38.67
2023-03-05T18:58:20.069Z,38.25
2023-03-05T19:00:48.899Z,42.00
2023-03-05T19:03:19.337Z,39.92
2023-03-05T19:05:50.257Z,41.03
2023-03-05T19:08:18.337Z,43.55
2023-03-05T19:10:47.014Z,39.15
2023-03-05T19:13:36.300Z,49.28
2023-03-05T19:16:36.841Z,51.60
2023-03-05T19:19:14.361Z,48.88
2023-03-05T19:21:43.954Z,53.70
2023-03-05T19:24:12.316Z,45.03
2023-03-05T19:26:40.811Z,52.17
2023-03-05T19:29:09.473Z,48.25
2023-03-05T19:31:38.134Z,49.72
2023-03-05T19:34:05.979Z,54.92
2023-03-05T19:36:35.582Z,54.50
2023-03-05T19:39:05.727Z,53.60
2023-03-05T19:41:34.412Z,54.85
2023-03-05T19:44:02.781Z,51.00
2023-03-05T19:46:31.696Z,51.15
2023-03-05T19:48:59.637Z,57.58
2023-03-05T19:51:28.492Z,43.78
2023-03-05T19:53:56.321Z,52.92
2023-03-05T19:56:24.335Z,49.65
2023-03-05T19:58:52.096Z,49.60
2023-03-05T20:01:23.092Z,47.60
2023-03-05T20:03:54.430Z,46.42
2023-03-05T20:06:23.248Z,53.97
2023-03-05T20:08:51.301Z,52.85
2023-03-05T20:11:21.566Z,48.28
2023-03-05T20:13:50.334Z,54.33
2023-03-05T20:16:26.740Z,57.10
2023-03-05T20:18:55.905Z,55.63
2023-03-05T20:21:27.684Z,56.92
2023-03-05T20:23:58.017Z,59.83
2023-03-05T20:26:27.113Z,57.60
2023-03-05T20:28:56.541Z,52.45
2023-03-05T20:31:26.462Z,59.05
2023-03-05T20:33:56.282Z,60.50
2023-03-05T20:36:24.633Z,65.18
2023-03-05T20:38:52.459Z,56.25
2023-03-05T20:41:20.904Z,56.85
2023-03-05T20:43:50.791Z,62.80
2023-03-05T20:46:22.265Z,58.67
2023-03-05T20:48:52.087Z,56.38
2023-03-05T20:51:24.567Z,58.90
2023-03-05T20:53:57.942Z,63.42
2023-03-05T20:56:28.011Z,57.35
2023-03-05T20:58:58.242Z,63.17
2023-03-05T21:01:27.418Z,60.88
2023-03-05T21:03:57.227Z,63.60
2023-03-05T21:06:27.200Z,60.53
2023-03-05T21:08:55.135Z,63.22
2023-03-05T21:11:23.196Z,59.97
2023-03-05T21:13:51.053Z,61.08
2023-03-05T21:16:26.012Z,62.10
2023-03-05T21:18:55.943Z,66.70
2023-03-05T21:21:24.514Z,67.47
2023-03-05T21:23:53.306Z,66.60
2023-03-05T21:26:21.681Z,59.63
2023-03-05T21:28:49.451Z,54.65
2023-03-05T21:31:20.661Z,71.60
2023-03-05T21:33:49.431Z,57.78
2023-03-05T21:36:18.850Z,68.40
2023-03-05T21:38:47.904Z,59.60
2023-03-05T21:41:18.191Z,62.38
2023-03-05T21:43:46.276Z,65.35
2023-03-05T21:46:15.059Z,72.00
2023-03-05T21:48:43.093Z,70.13
2023-03-05T21:51:13.687Z,73.85
2023-03-05T21:53:41.899Z,63.38
2023-03-05T21:56:19.185Z,65.10
2023-03-05T21:58:47.965Z,65.75
2023-03-05T22:01:18.561Z,66.72
2023-03-05T22:03:47.636Z,64.47
2023-03-05T22:06:17.761Z,68.30
2023-03-05T22:08:46.140Z,66.05
2023-03-05T22:11:17.234Z,66.80
2023-03-05T22:13:45.458Z,57.53
2023-03-05T22:16:25.645Z,68.47
2023-03-05T22:18:53.838Z,72.25
2023-03-05T22:21:26.944Z,65.60
2023-03-05T22:23:57.191Z,74.28
2023-03-05T22:26:26.412Z,66.43
2023-03-05T22:28:54.496Z,62.00
2023-03-05T22:31:24.637Z,67.85
2023-03-05T22:33:53.132Z,70.57
2023-03-05T22:36:20.934Z,65.53
2023-03-05T22:38:48.916Z,64.82
2023-03-05T22:41:19.866Z,66.65
2023-03-05T22:43:48.952Z,69.53
2023-03-05T22:46:23.229Z,62.95
2023-03-05T22:48:52.269Z,66.88
2023-03-05T22:51:20.337Z,54.78
2023-03-05T22:53:48.258Z,65.13
2023-03-05T22:56:18.874Z,63.13
2023-03-05T22:58:47.601Z,62.03
2023-03-05T23:01:18.409Z,59.72
2023-03-05T23:03:47.362Z,53.97
2023-03-05T23:06:15.119Z,61.58
2023-03-05T23:08:43.077Z,62.20
2023-03-05T23:11:12.989Z,62.05
2023-03-05T23:13:41.752Z,68.30
2023-03-05T23:16:09.831Z,55.00
2023-03-05T23:18:38.093Z,59.75
2023-03-05T23:21:06.082Z,50.30
2023-03-05T23:23:34.111Z,59.60
2023-03-05T23:26:01.906Z,61.45
2023-03-05T23:28:29.910Z,61.20
2023-03-05T23:30:58.699Z,53.38
2023-03-05T23:33:26.596Z,52.58
2023-03-05T23:35:59.505Z,50.92
2023-03-05T23:38:29.634Z,53.08
2023-03-05T23:41:01.262Z,53.40
2023-03-05T23:43:30.051Z,53.92
2023-03-05T23:45:57.966Z,57.20
2023-03-05T23:48:27.827Z,52.40
2023-03-05T23:50:55.850Z,50.40
2023-03-05T23:53:32.943Z,53.42
2023-03-05T23:56:00.664Z,53.92
2023-03-05T23:58:28.611Z,60.28
